sensor_id;sensor_type;location;lat;lon;timestamp;P1;durP1;ratioP1;P2;durP2;ratioP2
4519;SDS011;2272;49.226;8.108;2024-02-16T00:01:13;3.27;;;2.93;;
4519;SDS011;2272;49.226;8.108;2024-02-16T00:03:39;3.53;;;3.23;;
4519;SDS011;2272;49.226;8.108;2024-02-16T00:06:07;7.83;;;2.83;;
4519;SDS011;2272;49.226;8.108;2024-02-16T00:08:33;3.63;;;3.30;;
4519;SDS011;2272;49.226;8.108;2024-02-16T00:11:03;5.40;;;2.60;;
4519;SDS011;2272;49.226;8.108;2024-02-16T00:13:30;3.23;;;2.93;;
4519;SDS011;2272;49.226;8.108;2024-02-16T00:15:57;8.63;;;2.77;;
4519;SDS011;2272;49.226;8.108;2024-02-16T00:18:25;10.03;;;2.83;;
4519;SDS011;2272;49.226;8.108;2024-02-16T00:20:52;3.23;;;2.93;;
4519;SDS011;2272;49.226;8.108;2024-02-16T00:23:19;5.13;;;2.80;;
4519;SDS011;2272;49.226;8.108;2024-02-16T00:25:47;5.23;;;2.40;;
4519;SDS011;2272;49.226;8.108;2024-02-16T00:28:14;4.93;;;3.30;;
4519;SDS011;2272;49.226;8.108;2024-02-16T00:30:40;5.40;;;2.90;;
4519;SDS011;2272;49.226;8.108;2024-02-16T00:33:07;3.40;;;3.07;;
4519;SDS011;2272;49.226;8.108;2024-02-16T00:35:35;4.40;;;3.27;;
4519;SDS011;2272;49.226;8.108;2024-02-16T00:38:02;3.63;;;3.07;;
4519;SDS011;2272;49.226;8.108;2024-02-16T00:40:29;5.73;;;2.93;;
4519;SDS011;2272;49.226;8.108;2024-02-16T00:42:56;2.83;;;2.63;;
4519;SDS011;2272;49.226;8.108;2024-02-16T00:45:22;8.23;;;3.20;;
4519;SDS011;2272;49.226;8.108;2024-02-16T00:47:49;4.80;;;3.10;;
4519;SDS011;2272;49.226;8.108;2024-02-16T00:50:16;4.93;;;3.20;;
4519;SDS011;2272;49.226;8.108;2024-02-16T00:52:44;6.30;;;3.73;;
4519;SDS011;2272;49.226;8.108;2024-02-16T00:55:10;3.50;;;3.20;;
4519;SDS011;2272;49.226;8.108;2024-02-16T00:57:38;4.70;;;3.30;;
4519;SDS011;2272;49.226;8.108;2024-02-16T01:00:05;5.77;;;4.30;;
4519;SDS011;2272;49.226;8.108;2024-02-16T01:02:34;11.10;;;3.27;;
4519;SDS011;2272;49.226;8.108;2024-02-16T01:05:00;12.60;;;3.70;;
4519;SDS011;2272;49.226;8.108;2024-02-16T01:07:27;20.40;;;4.07;;
4519;SDS011;2272;49.226;8.108;2024-02-16T01:09:57;7.37;;;3.57;;
4519;SDS011;2272;49.226;8.108;2024-02-16T01:12:25;5.63;;;3.20;;
4519;SDS011;2272;49.226;8.108;2024-02-16T01:14:51;8.03;;;3.53;;
4519;SDS011;2272;49.226;8.108;2024-02-16T01:17:18;5.73;;;2.63;;
4519;SDS011;2272;49.226;8.108;2024-02-16T01:19:45;5.70;;;3.70;;
4519;SDS011;2272;49.226;8.108;2024-02-16T01:22:12;4.07;;;3.67;;
4519;SDS011;2272;49.226;8.108;2024-02-16T01:24:38;6.50;;;3.10;;
4519;SDS011;2272;49.226;8.108;2024-02-16T01:27:06;4.20;;;2.50;;
4519;SDS011;2272;49.226;8.108;2024-02-16T01:29:33;3.03;;;2.80;;
4519;SDS011;2272;49.226;8.108;2024-02-16T01:32:00;3.20;;;2.90;;
4519;SDS011;2272;49.226;8.108;2024-02-16T01:34:28;16.27;;;2.63;;
4519;SDS011;2272;49.226;8.108;2024-02-16T01:36:56;2.30;;;2.10;;
4519;SDS011;2272;49.226;8.108;2024-02-16T01:39:23;4.83;;;2.67;;
4519;SDS011;2272;49.226;8.108;2024-02-16T01:41:50;3.50;;;2.27;;
4519;SDS011;2272;49.226;8.108;2024-02-16T01:44:18;6.63;;;2.47;;
4519;SDS011;2272;49.226;8.108;2024-02-16T01:46:45;3.13;;;2.23;;
4519;SDS011;2272;49.226;8.108;2024-02-16T01:49:12;2.93;;;2.70;;
4519;SDS011;2272;49.226;8.108;2024-02-16T01:51:40;3.13;;;2.90;;
4519;SDS011;2272;49.226;8.108;2024-02-16T01:54:09;2.83;;;2.63;;
4519;SDS011;2272;49.226;8.108;2024-02-16T01:56:36;5.80;;;3.57;;
4519;SDS011;2272;49.226;8.108;2024-02-16T01:59:03;3.80;;;2.80;;
4519;SDS011;2272;49.226;8.108;2024-02-16T02:01:31;4.73;;;3.00;;
4519;SDS011;2272;49.226;8.108;2024-02-16T02:03:58;5.10;;;3.57;;
4519;SDS011;2272;49.226;8.108;2024-02-16T02:06:24;12.90;;;3.10;;
4519;SDS011;2272;49.226;8.108;2024-02-16T02:08:51;3.00;;;2.80;;
4519;SDS011;2272;49.226;8.108;2024-02-16T02:11:18;2.87;;;2.37;;
4519;SDS011;2272;49.226;8.108;2024-02-16T02:13:44;5.73;;;2.93;;
4519;SDS011;2272;49.226;8.108;2024-02-16T02:16:11;4.83;;;2.60;;
4519;SDS011;2272;49.226;8.108;2024-02-16T02:18:40;2.37;;;2.20;;
4519;SDS011;2272;49.226;8.108;2024-02-16T02:21:08;2.50;;;2.30;;
4519;SDS011;2272;49.226;8.108;2024-02-16T02:23:36;5.10;;;3.20;;
4519;SDS011;2272;49.226;8.108;2024-02-16T02:26:03;2.70;;;2.50;;
4519;SDS011;2272;49.226;8.108;2024-02-16T02:28:30;5.87;;;3.10;;
4519;SDS011;2272;49.226;8.108;2024-02-16T02:30:59;2.97;;;2.77;;
4519;SDS011;2272;49.226;8.108;2024-02-16T02:33:26;2.03;;;1.87;;
4519;SDS011;2272;49.226;8.108;2024-02-16T02:35:52;3.97;;;3.20;;
4519;SDS011;2272;49.226;8.108;2024-02-16T02:38:19;4.00;;;2.00;;
4519;SDS011;2272;49.226;8.108;2024-02-16T02:40:47;3.37;;;2.37;;
4519;SDS011;2272;49.226;8.108;2024-02-16T02:43:14;3.00;;;2.73;;
4519;SDS011;2272;49.226;8.108;2024-02-16T02:45:40;9.77;;;3.00;;
4519;SDS011;2272;49.226;8.108;2024-02-16T02:48:07;3.93;;;3.00;;
4519;SDS011;2272;49.226;8.108;2024-02-16T02:50:34;5.03;;;2.73;;
4519;SDS011;2272;49.226;8.108;2024-02-16T02:53:00;4.73;;;2.47;;
4519;SDS011;2272;49.226;8.108;2024-02-16T02:55:27;2.30;;;2.07;;
4519;SDS011;2272;49.226;8.108;2024-02-16T02:57:55;2.33;;;2.13;;
4519;SDS011;2272;49.226;8.108;2024-02-16T03:00:22;5.50;;;2.53;;
4519;SDS011;2272;49.226;8.108;2024-02-16T03:02:51;7.10;;;3.13;;
4519;SDS011;2272;49.226;8.108;2024-02-16T03:05:17;3.00;;;2.70;;
4519;SDS011;2272;49.226;8.108;2024-02-16T03:07:45;3.20;;;2.90;;
4519;SDS011;2272;49.226;8.108;2024-02-16T03:10:11;4.63;;;2.43;;
4519;SDS011;2272;49.226;8.108;2024-02-16T03:12:40;4.07;;;3.53;;
4519;SDS011;2272;49.226;8.108;2024-02-16T03:15:09;7.83;;;3.77;;
4519;SDS011;2272;49.226;8.108;2024-02-16T03:17:35;3.67;;;2.80;;
4519;SDS011;2272;49.226;8.108;2024-02-16T03:20:02;4.50;;;3.00;;
4519;SDS011;2272;49.226;8.108;2024-02-16T03:22:29;3.30;;;3.00;;
4519;SDS011;2272;49.226;8.108;2024-02-16T03:24:56;11.50;;;3.40;;
4519;SDS011;2272;49.226;8.108;2024-02-16T03:27:23;3.80;;;3.13;;
4519;SDS011;2272;49.226;8.108;2024-02-16T03:29:49;3.50;;;3.20;;
4519;SDS011;2272;49.226;8.108;2024-02-16T03:32:17;3.40;;;3.07;;
4519;SDS011;2272;49.226;8.108;2024-02-16T03:34:44;3.83;;;3.00;;
4519;SDS011;2272;49.226;8.108;2024-02-16T03:37:11;3.53;;;3.23;;
4519;SDS011;2272;49.226;8.108;2024-02-16T03:39:37;4.30;;;2.90;;
4519;SDS011;2272;49.226;8.108;2024-02-16T03:42:04;3.90;;;2.97;;
4519;SDS011;2272;49.226;8.108;2024-02-16T03:44:31;4.90;;;3.10;;
4519;SDS011;2272;49.226;8.108;2024-02-16T03:46:58;7.00;;;3.10;;
4519;SDS011;2272;49.226;8.108;2024-02-16T03:49:26;6.23;;;3.27;;
4519;SDS011;2272;49.226;8.108;2024-02-16T03:51:52;3.40;;;3.17;;
4519;SDS011;2272;49.226;8.108;2024-02-16T03:54:19;6.63;;;3.30;;
4519;SDS011;2272;49.226;8.108;2024-02-16T03:56:46;2.90;;;2.70;;
4519;SDS011;2272;49.226;8.108;2024-02-16T03:59:13;3.30;;;3.00;;
4519;SDS011;2272;49.226;8.108;2024-02-16T04:01:40;2.90;;;2.70;;
4519;SDS011;2272;49.226;8.108;2024-02-16T04:04:07;3.53;;;2.87;;
4519;SDS011;2272;49.226;8.108;2024-02-16T04:06:35;3.33;;;2.50;;
4519;SDS011;2272;49.226;8.108;2024-02-16T04:09:02;3.20;;;2.67;;
4519;SDS011;2272;49.226;8.108;2024-02-16T04:11:31;3.13;;;2.90;;
4519;SDS011;2272;49.226;8.108;2024-02-16T04:13:57;3.40;;;2.53;;
4519;SDS011;2272;49.226;8.108;2024-02-16T04:16:24;4.30;;;3.27;;
4519;SDS011;2272;49.226;8.108;2024-02-16T04:18:51;6.00;;;3.27;;
4519;SDS011;2272;49.226;8.108;2024-02-16T04:21:18;3.63;;;3.30;;
4519;SDS011;2272;49.226;8.108;2024-02-16T04:23:47;8.70;;;3.40;;
4519;SDS011;2272;49.226;8.108;2024-02-16T04:26:13;3.13;;;2.73;;
4519;SDS011;2272;49.226;8.108;2024-02-16T04:28:40;4.87;;;3.70;;
4519;SDS011;2272;49.226;8.108;2024-02-16T04:31:07;3.13;;;2.67;;
4519;SDS011;2272;49.226;8.108;2024-02-16T04:33:34;3.30;;;3.10;;
4519;SDS011;2272;49.226;8.108;2024-02-16T04:36:00;4.67;;;3.20;;
4519;SDS011;2272;49.226;8.108;2024-02-16T04:38:27;6.23;;;3.10;;
4519;SDS011;2272;49.226;8.108;2024-02-16T04:40:55;3.60;;;3.20;;
4519;SDS011;2272;49.226;8.108;2024-02-16T04:43:22;3.00;;;2.80;;
4519;SDS011;2272;49.226;8.108;2024-02-16T04:45:49;6.23;;;3.00;;
4519;SDS011;2272;49.226;8.108;2024-02-16T04:48:15;2.83;;;2.53;;
4519;SDS011;2272;49.226;8.108;2024-02-16T04:50:42;5.67;;;3.60;;
4519;SDS011;2272;49.226;8.108;2024-02-16T04:53:09;3.43;;;3.17;;
4519;SDS011;2272;49.226;8.108;2024-02-16T04:55:36;5.33;;;2.93;;
4519;SDS011;2272;49.226;8.108;2024-02-16T04:58:04;5.43;;;3.57;;
4519;SDS011;2272;49.226;8.108;2024-02-16T05:00:34;3.47;;;3.17;;
4519;SDS011;2272;49.226;8.108;2024-02-16T05:03:01;5.10;;;2.80;;
4519;SDS011;2272;49.226;8.108;2024-02-16T05:05:28;4.80;;;2.53;;
4519;SDS011;2272;49.226;8.108;2024-02-16T05:07:55;4.77;;;3.20;;
4519;SDS011;2272;49.226;8.108;2024-02-16T05:10:22;7.07;;;3.20;;
4519;SDS011;2272;49.226;8.108;2024-02-16T05:12:49;5.53;;;2.87;;
4519;SDS011;2272;49.226;8.108;2024-02-16T05:15:17;3.90;;;3.03;;
4519;SDS011;2272;49.226;8.108;2024-02-16T05:17:46;3.80;;;3.00;;
4519;SDS011;2272;49.226;8.108;2024-02-16T05:20:14;2.70;;;2.50;;
4519;SDS011;2272;49.226;8.108;2024-02-16T05:22:41;3.83;;;2.80;;
4519;SDS011;2272;49.226;8.108;2024-02-16T05:25:08;3.13;;;2.90;;
4519;SDS011;2272;49.226;8.108;2024-02-16T05:27:36;3.10;;;2.53;;
4519;SDS011;2272;49.226;8.108;2024-02-16T05:30:04;6.20;;;2.90;;
4519;SDS011;2272;49.226;8.108;2024-02-16T05:32:34;6.83;;;2.80;;
4519;SDS011;2272;49.226;8.108;2024-02-16T05:35:02;4.50;;;3.10;;
4519;SDS011;2272;49.226;8.108;2024-02-16T05:37:36;11.20;;;2.90;;
4519;SDS011;2272;49.226;8.108;2024-02-16T05:40:05;3.00;;;2.70;;
4519;SDS011;2272;49.226;8.108;2024-02-16T05:42:45;3.33;;;2.67;;
4519;SDS011;2272;49.226;8.108;2024-02-16T05:45:13;6.77;;;2.80;;
4519;SDS011;2272;49.226;8.108;2024-02-16T05:47:41;4.00;;;3.23;;
4519;SDS011;2272;49.226;8.108;2024-02-16T05:50:10;7.83;;;3.10;;
4519;SDS011;2272;49.226;8.108;2024-02-16T05:52:37;8.13;;;2.90;;
4519;SDS011;2272;49.226;8.108;2024-02-16T05:55:04;3.60;;;3.30;;
4519;SDS011;2272;49.226;8.108;2024-02-16T05:57:32;7.83;;;3.10;;
4519;SDS011;2272;49.226;8.108;2024-02-16T05:59:58;3.00;;;2.80;;
4519;SDS011;2272;49.226;8.108;2024-02-16T06:02:25;3.27;;;2.97;;
4519;SDS011;2272;49.226;8.108;2024-02-16T06:04:53;4.43;;;3.30;;
4519;SDS011;2272;49.226;8.108;2024-02-16T06:07:20;3.67;;;2.97;;
4519;SDS011;2272;49.226;8.108;2024-02-16T06:09:47;6.27;;;3.53;;
4519;SDS011;2272;49.226;8.108;2024-02-16T06:12:13;9.40;;;3.77;;
4519;SDS011;2272;49.226;8.108;2024-02-16T06:14:41;3.00;;;2.70;;
4519;SDS011;2272;49.226;8.108;2024-02-16T06:17:07;6.80;;;3.10;;
4519;SDS011;2272;49.226;8.108;2024-02-16T06:19:34;4.80;;;3.70;;
4519;SDS011;2272;49.226;8.108;2024-02-16T06:22:02;4.47;;;3.53;;
4519;SDS011;2272;49.226;8.108;2024-02-16T06:24:29;4.90;;;3.20;;
4519;SDS011;2272;49.226;8.108;2024-02-16T06:26:56;3.47;;;3.17;;
4519;SDS011;2272;49.226;8.108;2024-02-16T06:29:23;5.00;;;3.23;;
4519;SDS011;2272;49.226;8.108;2024-02-16T06:31:51;4.67;;;2.87;;
4519;SDS011;2272;49.226;8.108;2024-02-16T06:34:18;7.40;;;3.33;;
4519;SDS011;2272;49.226;8.108;2024-02-16T06:36:45;9.43;;;4.00;;
4519;SDS011;2272;49.226;8.108;2024-02-16T06:39:13;7.50;;;3.13;;
4519;SDS011;2272;49.226;8.108;2024-02-16T06:41:43;4.40;;;4.03;;
4519;SDS011;2272;49.226;8.108;2024-02-16T06:44:10;5.80;;;4.13;;
4519;SDS011;2272;49.226;8.108;2024-02-16T06:46:37;4.07;;;3.60;;
4519;SDS011;2272;49.226;8.108;2024-02-16T06:49:04;4.87;;;3.27;;
4519;SDS011;2272;49.226;8.108;2024-02-16T06:51:31;4.30;;;3.40;;
4519;SDS011;2272;49.226;8.108;2024-02-16T06:53:58;6.30;;;3.80;;
4519;SDS011;2272;49.226;8.108;2024-02-16T06:56:26;5.23;;;4.63;;
4519;SDS011;2272;49.226;8.108;2024-02-16T06:58:53;9.93;;;6.00;;
4519;SDS011;2272;49.226;8.108;2024-02-16T07:01:20;10.40;;;6.27;;
4519;SDS011;2272;49.226;8.108;2024-02-16T07:03:46;8.03;;;6.13;;
4519;SDS011;2272;49.226;8.108;2024-02-16T07:06:13;8.50;;;6.00;;
4519;SDS011;2272;49.226;8.108;2024-02-16T07:08:40;10.70;;;5.17;;
4519;SDS011;2272;49.226;8.108;2024-02-16T07:11:07;7.57;;;4.60;;
4519;SDS011;2272;49.226;8.108;2024-02-16T07:13:37;5.50;;;3.97;;
4519;SDS011;2272;49.226;8.108;2024-02-16T07:16:05;4.37;;;3.60;;
4519;SDS011;2272;49.226;8.108;2024-02-16T07:18:33;6.90;;;4.10;;
4519;SDS011;2272;49.226;8.108;2024-02-16T07:20:59;6.03;;;3.63;;
4519;SDS011;2272;49.226;8.108;2024-02-16T07:23:26;3.90;;;3.50;;
4519;SDS011;2272;49.226;8.108;2024-02-16T07:25:53;3.63;;;3.30;;
4519;SDS011;2272;49.226;8.108;2024-02-16T07:28:21;5.17;;;4.10;;
4519;SDS011;2272;49.226;8.108;2024-02-16T07:30:49;3.77;;;3.23;;
4519;SDS011;2272;49.226;8.108;2024-02-16T07:33:17;4.20;;;3.20;;
4519;SDS011;2272;49.226;8.108;2024-02-16T07:35:43;7.23;;;4.67;;
4519;SDS011;2272;49.226;8.108;2024-02-16T07:38:11;4.10;;;3.43;;
4519;SDS011;2272;49.226;8.108;2024-02-16T07:40:38;16.50;;;3.63;;
4519;SDS011;2272;49.226;8.108;2024-02-16T07:43:05;5.57;;;3.80;;
4519;SDS011;2272;49.226;8.108;2024-02-16T07:45:33;4.43;;;3.70;;
4519;SDS011;2272;49.226;8.108;2024-02-16T07:48:02;3.67;;;3.43;;
4519;SDS011;2272;49.226;8.108;2024-02-16T07:50:30;5.90;;;3.77;;
4519;SDS011;2272;49.226;8.108;2024-02-16T07:52:57;5.27;;;4.60;;
4519;SDS011;2272;49.226;8.108;2024-02-16T07:55:24;3.93;;;3.63;;
4519;SDS011;2272;49.226;8.108;2024-02-16T07:57:51;5.17;;;3.60;;
4519;SDS011;2272;49.226;8.108;2024-02-16T08:00:18;8.23;;;5.03;;
4519;SDS011;2272;49.226;8.108;2024-02-16T08:02:45;5.93;;;4.07;;
4519;SDS011;2272;49.226;8.108;2024-02-16T08:05:13;12.13;;;6.47;;
4519;SDS011;2272;49.226;8.108;2024-02-16T08:07:40;8.60;;;5.97;;
4519;SDS011;2272;49.226;8.108;2024-02-16T08:10:08;7.70;;;6.20;;
4519;SDS011;2272;49.226;8.108;2024-02-16T08:12:35;7.20;;;5.10;;
4519;SDS011;2272;49.226;8.108;2024-02-16T08:15:03;15.03;;;9.00;;
4519;SDS011;2272;49.226;8.108;2024-02-16T08:17:32;20.73;;;9.83;;
4519;SDS011;2272;49.226;8.108;2024-02-16T08:19:59;16.70;;;9.93;;
4519;SDS011;2272;49.226;8.108;2024-02-16T08:22:27;11.33;;;8.33;;
4519;SDS011;2272;49.226;8.108;2024-02-16T08:24:54;14.50;;;10.53;;
4519;SDS011;2272;49.226;8.108;2024-02-16T08:27:21;11.73;;;8.30;;
4519;SDS011;2272;49.226;8.108;2024-02-16T08:29:48;11.80;;;7.53;;
4519;SDS011;2272;49.226;8.108;2024-02-16T08:32:15;14.10;;;6.93;;
4519;SDS011;2272;49.226;8.108;2024-02-16T08:34:43;8.00;;;6.53;;
4519;SDS011;2272;49.226;8.108;2024-02-16T08:37:10;8.50;;;6.40;;
4519;SDS011;2272;49.226;8.108;2024-02-16T08:39:38;7.53;;;5.93;;
4519;SDS011;2272;49.226;8.108;2024-02-16T08:42:06;9.40;;;6.80;;
4519;SDS011;2272;49.226;8.108;2024-02-16T08:44:34;9.40;;;5.97;;
4519;SDS011;2272;49.226;8.108;2024-02-16T08:47:01;5.10;;;4.37;;
4519;SDS011;2272;49.226;8.108;2024-02-16T08:49:28;4.20;;;3.37;;
4519;SDS011;2272;49.226;8.108;2024-02-16T08:51:55;3.13;;;2.90;;
4519;SDS011;2272;49.226;8.108;2024-02-16T08:54:22;7.40;;;4.93;;
4519;SDS011;2272;49.226;8.108;2024-02-16T08:56:52;9.13;;;7.57;;
4519;SDS011;2272;49.226;8.108;2024-02-16T08:59:20;5.23;;;4.30;;
4519;SDS011;2272;49.226;8.108;2024-02-16T09:01:48;4.30;;;3.00;;
4519;SDS011;2272;49.226;8.108;2024-02-16T09:04:15;2.80;;;2.10;;
4519;SDS011;2272;49.226;8.108;2024-02-16T09:06:42;7.80;;;3.77;;
4519;SDS011;2272;49.226;8.108;2024-02-16T09:09:09;4.10;;;3.10;;
4519;SDS011;2272;49.226;8.108;2024-02-16T09:11:36;7.27;;;4.93;;
4519;SDS011;2272;49.226;8.108;2024-02-16T09:14:05;8.83;;;4.37;;
4519;SDS011;2272;49.226;8.108;2024-02-16T09:16:31;8.43;;;3.90;;
4519;SDS011;2272;49.226;8.108;2024-02-16T09:18:58;8.93;;;2.60;;
4519;SDS011;2272;49.226;8.108;2024-02-16T09:21:28;3.27;;;2.90;;
4519;SDS011;2272;49.226;8.108;2024-02-16T09:23:55;8.00;;;2.77;;
4519;SDS011;2272;49.226;8.108;2024-02-16T09:26:23;4.63;;;2.70;;
4519;SDS011;2272;49.226;8.108;2024-02-16T09:28:51;5.10;;;3.20;;
4519;SDS011;2272;49.226;8.108;2024-02-16T09:31:20;2.30;;;2.10;;
4519;SDS011;2272;49.226;8.108;2024-02-16T09:33:47;8.00;;;2.73;;
4519;SDS011;2272;49.226;8.108;2024-02-16T09:36:16;6.40;;;3.00;;
4519;SDS011;2272;49.226;8.108;2024-02-16T09:38:43;3.03;;;2.40;;
4519;SDS011;2272;49.226;8.108;2024-02-16T09:41:10;2.93;;;2.33;;
4519;SDS011;2272;49.226;8.108;2024-02-16T09:43:37;2.83;;;2.63;;
4519;SDS011;2272;49.226;8.108;2024-02-16T09:46:05;2.67;;;2.40;;
4519;SDS011;2272;49.226;8.108;2024-02-16T09:48:33;11.07;;;3.10;;
4519;SDS011;2272;49.226;8.108;2024-02-16T09:51:00;4.03;;;2.40;;
4519;SDS011;2272;49.226;8.108;2024-02-16T09:53:29;9.03;;;2.73;;
4519;SDS011;2272;49.226;8.108;2024-02-16T09:55:56;3.63;;;2.50;;
4519;SDS011;2272;49.226;8.108;2024-02-16T09:58:23;4.47;;;2.67;;
4519;SDS011;2272;49.226;8.108;2024-02-16T10:00:50;3.73;;;3.37;;
4519;SDS011;2272;49.226;8.108;2024-02-16T10:03:21;3.73;;;2.63;;
4519;SDS011;2272;49.226;8.108;2024-02-16T10:05:51;12.80;;;3.70;;
4519;SDS011;2272;49.226;8.108;2024-02-16T10:08:18;6.53;;;3.90;;
4519;SDS011;2272;49.226;8.108;2024-02-16T10:10:45;3.27;;;2.90;;
4519;SDS011;2272;49.226;8.108;2024-02-16T10:13:15;4.10;;;2.57;;
4519;SDS011;2272;49.226;8.108;2024-02-16T10:15:42;10.13;;;3.20;;
4519;SDS011;2272;49.226;8.108;2024-02-16T10:18:09;3.13;;;2.93;;
4519;SDS011;2272;49.226;8.108;2024-02-16T10:20:37;3.83;;;3.50;;
4519;SDS011;2272;49.226;8.108;2024-02-16T10:23:06;5.53;;;3.43;;
4519;SDS011;2272;49.226;8.108;2024-02-16T10:25:34;3.60;;;2.37;;
4519;SDS011;2272;49.226;8.108;2024-02-16T10:28:04;7.03;;;4.80;;
4519;SDS011;2272;49.226;8.108;2024-02-16T10:30:34;3.10;;;2.80;;
4519;SDS011;2272;49.226;8.108;2024-02-16T10:33:03;3.80;;;2.70;;
4519;SDS011;2272;49.226;8.108;2024-02-16T10:35:30;4.30;;;2.53;;
4519;SDS011;2272;49.226;8.108;2024-02-16T10:37:58;8.10;;;3.47;;
4519;SDS011;2272;49.226;8.108;2024-02-16T10:40:31;3.50;;;3.20;;
4519;SDS011;2272;49.226;8.108;2024-02-16T10:43:00;3.83;;;3.47;;
4519;SDS011;2272;49.226;8.108;2024-02-16T10:45:31;7.30;;;3.97;;
4519;SDS011;2272;49.226;8.108;2024-02-16T10:47:59;5.60;;;2.87;;
4519;SDS011;2272;49.226;8.108;2024-02-16T10:50:26;3.83;;;3.03;;
4519;SDS011;2272;49.226;8.108;2024-02-16T10:52:53;3.50;;;3.20;;
4519;SDS011;2272;49.226;8.108;2024-02-16T10:55:22;3.13;;;2.90;;
4519;SDS011;2272;49.226;8.108;2024-02-16T10:57:51;5.97;;;3.40;;
4519;SDS011;2272;49.226;8.108;2024-02-16T11:00:20;7.73;;;3.07;;
4519;SDS011;2272;49.226;8.108;2024-02-16T11:02:50;3.77;;;2.93;;
4519;SDS011;2272;49.226;8.108;2024-02-16T11:05:34;5.67;;;3.67;;
4519;SDS011;2272;49.226;8.108;2024-02-16T11:08:03;5.50;;;2.73;;
4519;SDS011;2272;49.226;8.108;2024-02-16T11:10:30;6.00;;;3.10;;
4519;SDS011;2272;49.226;8.108;2024-02-16T11:13:01;6.33;;;4.17;;
4519;SDS011;2272;49.226;8.108;2024-02-16T11:15:30;11.77;;;5.67;;
4519;SDS011;2272;49.226;8.108;2024-02-16T11:17:57;5.70;;;2.87;;
4519;SDS011;2272;49.226;8.108;2024-02-16T11:20:26;2.63;;;2.17;;
4519;SDS011;2272;49.226;8.108;2024-02-16T11:22:53;7.40;;;2.70;;
4519;SDS011;2272;49.226;8.108;2024-02-16T11:25:30;4.20;;;2.63;;
4519;SDS011;2272;49.226;8.108;2024-02-16T11:27:58;5.70;;;2.63;;
4519;SDS011;2272;49.226;8.108;2024-02-16T11:30:26;14.23;;;2.80;;
4519;SDS011;2272;49.226;8.108;2024-02-16T11:32:53;17.53;;;3.23;;
4519;SDS011;2272;49.226;8.108;2024-02-16T11:35:19;8.33;;;2.60;;
4519;SDS011;2272;49.226;8.108;2024-02-16T11:37:46;5.33;;;2.70;;
4519;SDS011;2272;49.226;8.108;2024-02-16T11:40:13;5.10;;;2.80;;
4519;SDS011;2272;49.226;8.108;2024-02-16T11:42:40;5.43;;;2.63;;
4519;SDS011;2272;49.226;8.108;2024-02-16T11:45:09;4.90;;;2.53;;
4519;SDS011;2272;49.226;8.108;2024-02-16T11:47:38;11.33;;;2.90;;
4519;SDS011;2272;49.226;8.108;2024-02-16T11:50:06;5.30;;;1.87;;
4519;SDS011;2272;49.226;8.108;2024-02-16T11:52:36;5.80;;;2.60;;
4519;SDS011;2272;49.226;8.108;2024-02-16T11:55:03;6.50;;;1.87;;
4519;SDS011;2272;49.226;8.108;2024-02-16T11:57:33;4.40;;;2.80;;
4519;SDS011;2272;49.226;8.108;2024-02-16T12:00:01;4.30;;;2.50;;
4519;SDS011;2272;49.226;8.108;2024-02-16T12:02:34;6.30;;;3.13;;
4519;SDS011;2272;49.226;8.108;2024-02-16T12:05:02;6.57;;;2.60;;
4519;SDS011;2272;49.226;8.108;2024-02-16T12:07:30;5.53;;;2.50;;
4519;SDS011;2272;49.226;8.108;2024-02-16T12:09:58;10.33;;;2.53;;
4519;SDS011;2272;49.226;8.108;2024-02-16T12:12:26;7.23;;;2.20;;
4519;SDS011;2272;49.226;8.108;2024-02-16T12:14:54;4.70;;;2.03;;
4519;SDS011;2272;49.226;8.108;2024-02-16T12:17:21;7.73;;;2.27;;
4519;SDS011;2272;49.226;8.108;2024-02-16T12:19:49;3.60;;;2.47;;
4519;SDS011;2272;49.226;8.108;2024-02-16T12:22:17;7.10;;;2.70;;
4519;SDS011;2272;49.226;8.108;2024-02-16T12:24:45;7.20;;;3.17;;
4519;SDS011;2272;49.226;8.108;2024-02-16T12:27:12;5.67;;;3.33;;
4519;SDS011;2272;49.226;8.108;2024-02-16T12:29:42;3.13;;;2.30;;
4519;SDS011;2272;49.226;8.108;2024-02-16T12:32:09;2.70;;;2.17;;
4519;SDS011;2272;49.226;8.108;2024-02-16T12:34:36;7.97;;;2.60;;
4519;SDS011;2272;49.226;8.108;2024-02-16T12:37:04;19.33;;;3.10;;
4519;SDS011;2272;49.226;8.108;2024-02-16T12:39:34;4.17;;;2.30;;
4519;SDS011;2272;49.226;8.108;2024-02-16T12:42:00;3.33;;;2.17;;
4519;SDS011;2272;49.226;8.108;2024-02-16T12:44:27;5.43;;;3.60;;
4519;SDS011;2272;49.226;8.108;2024-02-16T12:46:55;2.20;;;1.93;;
4519;SDS011;2272;49.226;8.108;2024-02-16T12:49:22;2.03;;;1.83;;
4519;SDS011;2272;49.226;8.108;2024-02-16T12:51:49;11.57;;;2.63;;
4519;SDS011;2272;49.226;8.108;2024-02-16T12:54:16;5.60;;;2.27;;
4519;SDS011;2272;49.226;8.108;2024-02-16T12:56:45;2.47;;;2.10;;
4519;SDS011;2272;49.226;8.108;2024-02-16T12:59:13;5.60;;;2.70;;
4519;SDS011;2272;49.226;8.108;2024-02-16T13:01:40;5.17;;;2.30;;
4519;SDS011;2272;49.226;8.108;2024-02-16T13:04:07;6.30;;;2.13;;
4519;SDS011;2272;49.226;8.108;2024-02-16T13:06:34;2.80;;;2.53;;
4519;SDS011;2272;49.226;8.108;2024-02-16T13:09:01;15.03;;;3.27;;
4519;SDS011;2272;49.226;8.108;2024-02-16T13:11:29;2.00;;;1.80;;
4519;SDS011;2272;49.226;8.108;2024-02-16T13:13:57;6.07;;;2.00;;
4519;SDS011;2272;49.226;8.108;2024-02-16T13:16:24;3.47;;;1.67;;
4519;SDS011;2272;49.226;8.108;2024-02-16T13:18:51;14.93;;;3.00;;
4519;SDS011;2272;49.226;8.108;2024-02-16T13:21:18;5.20;;;2.50;;
4519;SDS011;2272;49.226;8.108;2024-02-16T13:23:45;3.67;;;1.80;;
4519;SDS011;2272;49.226;8.108;2024-02-16T13:26:12;7.73;;;2.20;;
4519;SDS011;2272;49.226;8.108;2024-02-16T13:28:38;3.60;;;2.43;;
4519;SDS011;2272;49.226;8.108;2024-02-16T13:31:06;2.93;;;2.40;;
4519;SDS011;2272;49.226;8.108;2024-02-16T13:33:35;5.63;;;2.40;;
4519;SDS011;2272;49.226;8.108;2024-02-16T13:36:02;5.10;;;2.93;;
4519;SDS011;2272;49.226;8.108;2024-02-16T13:38:30;8.43;;;2.20;;
4519;SDS011;2272;49.226;8.108;2024-02-16T13:40:57;2.47;;;2.27;;
4519;SDS011;2272;49.226;8.108;2024-02-16T13:43:23;4.50;;;2.30;;
4519;SDS011;2272;49.226;8.108;2024-02-16T13:45:51;4.43;;;2.00;;
4519;SDS011;2272;49.226;8.108;2024-02-16T13:48:20;3.00;;;2.30;;
4519;SDS011;2272;49.226;8.108;2024-02-16T13:50:47;3.03;;;2.40;;
4519;SDS011;2272;49.226;8.108;2024-02-16T13:53:14;4.03;;;2.33;;
4519;SDS011;2272;49.226;8.108;2024-02-16T13:55:41;9.27;;;2.47;;
4519;SDS011;2272;49.226;8.108;2024-02-16T13:58:08;2.63;;;2.30;;
4519;SDS011;2272;49.226;8.108;2024-02-16T14:00:35;2.73;;;2.27;;
4519;SDS011;2272;49.226;8.108;2024-02-16T14:03:03;6.90;;;2.60;;
4519;SDS011;2272;49.226;8.108;2024-02-16T14:05:31;2.10;;;2.00;;
4519;SDS011;2272;49.226;8.108;2024-02-16T14:07:58;4.80;;;1.97;;
4519;SDS011;2272;49.226;8.108;2024-02-16T14:10:25;8.10;;;1.70;;
4519;SDS011;2272;49.226;8.108;2024-02-16T14:12:52;4.97;;;2.40;;
4519;SDS011;2272;49.226;8.108;2024-02-16T14:15:18;7.50;;;2.10;;
4519;SDS011;2272;49.226;8.108;2024-02-16T14:17:45;4.40;;;1.93;;
4519;SDS011;2272;49.226;8.108;2024-02-16T14:20:12;5.10;;;2.13;;
4519;SDS011;2272;49.226;8.108;2024-02-16T14:22:40;4.60;;;1.90;;
4519;SDS011;2272;49.226;8.108;2024-02-16T14:25:07;9.17;;;2.57;;
4519;SDS011;2272;49.226;8.108;2024-02-16T14:27:36;3.43;;;1.90;;
4519;SDS011;2272;49.226;8.108;2024-02-16T14:30:03;2.07;;;1.97;;
4519;SDS011;2272;49.226;8.108;2024-02-16T14:32:31;4.93;;;2.10;;
4519;SDS011;2272;49.226;8.108;2024-02-16T14:34:57;2.50;;;1.73;;
4519;SDS011;2272;49.226;8.108;2024-02-16T14:37:24;4.93;;;2.30;;
4519;SDS011;2272;49.226;8.108;2024-02-16T14:39:54;3.47;;;2.20;;
4519;SDS011;2272;49.226;8.108;2024-02-16T14:42:22;2.03;;;1.40;;
4519;SDS011;2272;49.226;8.108;2024-02-16T14:44:49;7.07;;;1.90;;
4519;SDS011;2272;49.226;8.108;2024-02-16T14:47:16;1.53;;;1.43;;
4519;SDS011;2272;49.226;8.108;2024-02-16T14:49:43;2.13;;;1.67;;
4519;SDS011;2272;49.226;8.108;2024-02-16T14:52:09;2.07;;;1.97;;
4519;SDS011;2272;49.226;8.108;2024-02-16T14:54:36;2.57;;;1.77;;
4519;SDS011;2272;49.226;8.108;2024-02-16T14:57:09;1.90;;;1.80;;
4519;SDS011;2272;49.226;8.108;2024-02-16T14:59:36;2.17;;;1.80;;
4519;SDS011;2272;49.226;8.108;2024-02-16T15:02:02;2.33;;;1.77;;
4519;SDS011;2272;49.226;8.108;2024-02-16T15:04:29;2.37;;;2.17;;
4519;SDS011;2272;49.226;8.108;2024-02-16T15:06:56;3.53;;;2.40;;
4519;SDS011;2272;49.226;8.108;2024-02-16T15:09:23;8.20;;;2.97;;
4519;SDS011;2272;49.226;8.108;2024-02-16T15:11:50;5.50;;;3.20;;
4519;SDS011;2272;49.226;8.108;2024-02-16T15:14:18;7.40;;;4.80;;
4519;SDS011;2272;49.226;8.108;2024-02-16T15:16:45;8.80;;;4.83;;